sensor_id;sensor_type;location;lat;lon;timestamp;temperature;humidity
20998;DHT22;10657;51.276;6.390;2023-08-08T00:00:25;14.60;99.90
20998;DHT22;10657;51.276;6.390;2023-08-08T00:02:52;14.60;99.90
20998;DHT22;10657;51.276;6.390;2023-08-08T00:05:19;14.50;99.90
20998;DHT22;10657;51.276;6.390;2023-08-08T00:07:45;14.50;99.90
20998;DHT22;10657;51.276;6.390;2023-08-08T00:10:12;14.50;99.90
20998;DHT22;10657;51.276;6.390;2023-08-08T00:12:39;14.50;99.90
20998;DHT22;10657;51.276;6.390;2023-08-08T00:15:06;14.40;99.90
20998;DHT22;10657;51.276;6.390;2023-08-08T00:17:33;14.40;99.90
20998;DHT22;10657;51.276;6.390;2023-08-08T00:19:59;14.40;99.90
20998;DHT22;10657;51.276;6.390;2023-08-08T00:22:26;14.50;99.90
20998;DHT22;10657;51.276;6.390;2023-08-08T00:24:53;14.50;99.90
20998;DHT22;10657;51.276;6.390;2023-08-08T00:27:20;14.50;99.90
20998;DHT22;10657;51.276;6.390;2023-08-08T00:29:46;14.40;99.90
20998;DHT22;10657;51.276;6.390;2023-08-08T00:32:13;14.40;99.90
20998;DHT22;10657;51.276;6.390;2023-08-08T00:34:40;14.30;99.90
20998;DHT22;10657;51.276;6.390;2023-08-08T00:37:07;14.40;99.90
20998;DHT22;10657;51.276;6.390;2023-08-08T00:39:33;14.40;99.90
20998;DHT22;10657;51.276;6.390;2023-08-08T00:42:00;14.30;99.90
20998;DHT22;10657;51.276;6.390;2023-08-08T00:44:27;14.30;99.90
20998;DHT22;10657;51.276;6.390;2023-08-08T00:46:54;14.40;99.90
20998;DHT22;10657;51.276;6.390;2023-08-08T00:49:21;14.40;99.90
20998;DHT22;10657;51.276;6.390;2023-08-08T00:51:49;14.30;99.90
20998;DHT22;10657;51.276;6.390;2023-08-08T00:54:16;14.30;99.90
20998;DHT22;10657;51.276;6.390;2023-08-08T00:56:43;14.30;99.90
20998;DHT22;10657;51.276;6.390;2023-08-08T00:59:10;14.30;99.90
20998;DHT22;10657;51.276;6.390;2023-08-08T01:01:38;14.20;99.90
20998;DHT22;10657;51.276;6.390;2023-08-08T01:04:05;14.30;99.90
20998;DHT22;10657;51.276;6.390;2023-08-08T01:09:37;14.20;99.90
20998;DHT22;10657;51.276;6.390;2023-08-08T01:12:08;14.20;99.90
20998;DHT22;10657;51.276;6.390;2023-08-08T01:14:37;14.10;99.90
20998;DHT22;10657;51.276;6.390;2023-08-08T01:17:05;14.10;99.90
20998;DHT22;10657;51.276;6.390;2023-08-08T01:19:32;14.10;99.90
20998;DHT22;10657;51.276;6.390;2023-08-08T01:22:06;14.10;99.90
20998;DHT22;10657;51.276;6.390;2023-08-08T01:24:34;14.00;99.90
20998;DHT22;10657;51.276;6.390;2023-08-08T01:27:04;14.10;99.90
20998;DHT22;10657;51.276;6.390;2023-08-08T01:29:32;14.10;99.90
20998;DHT22;10657;51.276;6.390;2023-08-08T01:31:59;14.10;99.90
20998;DHT22;10657;51.276;6.390;2023-08-08T01:34:26;14.10;99.90
20998;DHT22;10657;51.276;6.390;2023-08-08T01:37:02;14.10;99.90
20998;DHT22;10657;51.276;6.390;2023-08-08T01:39:32;14.10;99.90
20998;DHT22;10657;51.276;6.390;2023-08-08T01:41:59;14.10;99.90
20998;DHT22;10657;51.276;6.390;2023-08-08T01:44:28;14.10;99.90
20998;DHT22;10657;51.276;6.390;2023-08-08T01:46:56;14.00;99.90
20998;DHT22;10657;51.276;6.390;2023-08-08T01:49:23;14.10;99.90
20998;DHT22;10657;51.276;6.390;2023-08-08T01:51:49;14.10;99.90
20998;DHT22;10657;51.276;6.390;2023-08-08T01:54:17;14.00;99.90
20998;DHT22;10657;51.276;6.390;2023-08-08T01:56:43;14.00;99.90
20998;DHT22;10657;51.276;6.390;2023-08-08T01:59:10;14.00;99.90
20998;DHT22;10657;51.276;6.390;2023-08-08T02:01:39;14.00;99.90
20998;DHT22;10657;51.276;6.390;2023-08-08T02:04:06;14.00;99.90
20998;DHT22;10657;51.276;6.390;2023-08-08T02:06:33;14.00;99.90
20998;DHT22;10657;51.276;6.390;2023-08-08T02:09:00;14.00;99.90
20998;DHT22;10657;51.276;6.390;2023-08-08T02:11:27;14.00;99.90
20998;DHT22;10657;51.276;6.390;2023-08-08T02:13:53;14.00;99.90
20998;DHT22;10657;51.276;6.390;2023-08-08T02:16:20;14.00;99.90
20998;DHT22;10657;51.276;6.390;2023-08-08T02:18:47;14.00;99.90
20998;DHT22;10657;51.276;6.390;2023-08-08T02:21:13;14.00;99.90
20998;DHT22;10657;51.276;6.390;2023-08-08T02:23:40;13.90;99.90
20998;DHT22;10657;51.276;6.390;2023-08-08T02:26:07;13.90;99.90
20998;DHT22;10657;51.276;6.390;2023-08-08T02:28:33;13.90;99.90
20998;DHT22;10657;51.276;6.390;2023-08-08T02:31:00;14.00;99.90
20998;DHT22;10657;51.276;6.390;2023-08-08T02:33:27;13.90;99.90
20998;DHT22;10657;51.276;6.390;2023-08-08T02:35:53;13.90;99.90
20998;DHT22;10657;51.276;6.390;2023-08-08T02:38:20;13.90;99.90
20998;DHT22;10657;51.276;6.390;2023-08-08T02:40:47;13.90;99.90
20998;DHT22;10657;51.276;6.390;2023-08-08T02:43:13;13.90;99.90
20998;DHT22;10657;51.276;6.390;2023-08-08T02:45:40;13.90;99.90
20998;DHT22;10657;51.276;6.390;2023-08-08T02:48:07;13.90;99.90
20998;DHT22;10657;51.276;6.390;2023-08-08T02:50:34;13.90;99.90
20998;DHT22;10657;51.276;6.390;2023-08-08T02:53:00;13.80;99.90
20998;DHT22;10657;51.276;6.390;2023-08-08T02:55:27;13.90;99.90
20998;DHT22;10657;51.276;6.390;2023-08-08T02:57:54;13.80;99.90
20998;DHT22;10657;51.276;6.390;2023-08-08T03:00:20;13.90;99.90
20998;DHT22;10657;51.276;6.390;2023-08-08T03:02:47;13.80;99.90
20998;DHT22;10657;51.276;6.390;2023-08-08T03:05:14;13.90;99.90
20998;DHT22;10657;51.276;6.390;2023-08-08T03:07:40;13.90;99.90
20998;DHT22;10657;51.276;6.390;2023-08-08T03:10:07;13.80;99.90
20998;DHT22;10657;51.276;6.390;2023-08-08T03:12:34;13.80;99.90
20998;DHT22;10657;51.276;6.390;2023-08-08T03:15:01;13.80;99.90
20998;DHT22;10657;51.276;6.390;2023-08-08T03:17:28;13.70;99.90
20998;DHT22;10657;51.276;6.390;2023-08-08T03:19:55;13.70;99.90
20998;DHT22;10657;51.276;6.390;2023-08-08T03:22:22;13.70;99.90
20998;DHT22;10657;51.276;6.390;2023-08-08T03:24:49;13.60;99.90
20998;DHT22;10657;51.276;6.390;2023-08-08T03:27:15;13.70;99.90
20998;DHT22;10657;51.276;6.390;2023-08-08T03:29:42;13.60;99.90
20998;DHT22;10657;51.276;6.390;2023-08-08T03:32:09;13.60;99.90
20998;DHT22;10657;51.276;6.390;2023-08-08T03:34:35;13.60;99.90
20998;DHT22;10657;51.276;6.390;2023-08-08T03:37:02;13.50;99.90
20998;DHT22;10657;51.276;6.390;2023-08-08T03:39:29;13.50;99.90
20998;DHT22;10657;51.276;6.390;2023-08-08T03:41:55;13.50;99.90
20998;DHT22;10657;51.276;6.390;2023-08-08T03:44:22;13.50;99.90
20998;DHT22;10657;51.276;6.390;2023-08-08T03:46:49;13.50;99.90
20998;DHT22;10657;51.276;6.390;2023-08-08T03:49:20;13.50;99.90
20998;DHT22;10657;51.276;6.390;2023-08-08T03:51:47;13.50;99.90
20998;DHT22;10657;51.276;6.390;2023-08-08T03:54:15;13.50;99.90
20998;DHT22;10657;51.276;6.390;2023-08-08T03:56:41;13.50;99.90
20998;DHT22;10657;51.276;6.390;2023-08-08T03:59:08;13.50;99.90
20998;DHT22;10657;51.276;6.390;2023-08-08T04:01:35;13.50;99.90
20998;DHT22;10657;51.276;6.390;2023-08-08T04:04:02;13.50;99.90
20998;DHT22;10657;51.276;6.390;2023-08-08T04:06:29;13.60;99.90
20998;DHT22;10657;51.276;6.390;2023-08-08T04:08:55;13.60;99.90
20998;DHT22;10657;51.276;6.390;2023-08-08T04:11:22;13.50;99.90
20998;DHT22;10657;51.276;6.390;2023-08-08T04:13:49;13.60;99.90
20998;DHT22;10657;51.276;6.390;2023-08-08T04:16:15;13.50;99.90
20998;DHT22;10657;51.276;6.390;2023-08-08T04:18:42;13.60;99.90
20998;DHT22;10657;51.276;6.390;2023-08-08T04:21:08;13.60;99.90
20998;DHT22;10657;51.276;6.390;2023-08-08T04:23:36;13.60;99.90
20998;DHT22;10657;51.276;6.390;2023-08-08T04:26:02;13.60;99.90
20998;DHT22;10657;51.276;6.390;2023-08-08T04:28:30;13.60;99.90
20998;DHT22;10657;51.276;6.390;2023-08-08T04:30:57;13.60;99.90
20998;DHT22;10657;51.276;6.390;2023-08-08T04:33:24;13.60;99.90
20998;DHT22;10657;51.276;6.390;2023-08-08T04:35:50;13.60;99.90
20998;DHT22;10657;51.276;6.390;2023-08-08T04:38:17;13.60;99.90
20998;DHT22;10657;51.276;6.390;2023-08-08T04:40:44;13.60;99.90
20998;DHT22;10657;51.276;6.390;2023-08-08T04:43:11;13.70;99.90
20998;DHT22;10657;51.276;6.390;2023-08-08T04:45:37;13.70;99.90
20998;DHT22;10657;51.276;6.390;2023-08-08T04:48:04;13.70;99.90
20998;DHT22;10657;51.276;6.390;2023-08-08T04:50:31;13.70;99.90
20998;DHT22;10657;51.276;6.390;2023-08-08T04:52:58;13.70;99.90
20998;DHT22;10657;51.276;6.390;2023-08-08T04:55:25;13.70;99.90
20998;DHT22;10657;51.276;6.390;2023-08-08T04:57:51;13.70;99.90
20998;DHT22;10657;51.276;6.390;2023-08-08T05:00:18;13.70;99.90
20998;DHT22;10657;51.276;6.390;2023-08-08T05:02:44;13.70;99.90
20998;DHT22;10657;51.276;6.390;2023-08-08T05:05:11;13.80;99.90
20998;DHT22;10657;51.276;6.390;2023-08-08T05:07:38;13.80;99.90
20998;DHT22;10657;51.276;6.390;2023-08-08T05:10:05;13.80;99.90
20998;DHT22;10657;51.276;6.390;2023-08-08T05:12:32;13.80;99.90
20998;DHT22;10657;51.276;6.390;2023-08-08T05:14:59;13.80;99.90
20998;DHT22;10657;51.276;6.390;2023-08-08T05:17:25;13.80;99.90
20998;DHT22;10657;51.276;6.390;2023-08-08T05:19:52;13.80;99.90
20998;DHT22;10657;51.276;6.390;2023-08-08T05:22:19;13.80;99.90
20998;DHT22;10657;51.276;6.390;2023-08-08T05:24:45;13.80;99.90
20998;DHT22;10657;51.276;6.390;2023-08-08T05:27:12;13.80;99.90
20998;DHT22;10657;51.276;6.390;2023-08-08T05:29:39;13.90;99.90
20998;DHT22;10657;51.276;6.390;2023-08-08T05:32:07;13.80;99.90
20998;DHT22;10657;51.276;6.390;2023-08-08T05:34:34;13.90;99.90
20998;DHT22;10657;51.276;6.390;2023-08-08T05:37:01;13.80;99.90
20998;DHT22;10657;51.276;6.390;2023-08-08T05:39:42;13.80;99.90
20998;DHT22;10657;51.276;6.390;2023-08-08T05:42:09;13.80;99.90
20998;DHT22;10657;51.276;6.390;2023-08-08T05:44:35;13.90;99.90
20998;DHT22;10657;51.276;6.390;2023-08-08T05:47:02;13.90;99.90
20998;DHT22;10657;51.276;6.390;2023-08-08T05:49:29;13.90;99.90
20998;DHT22;10657;51.276;6.390;2023-08-08T05:51:55;14.00;99.90
20998;DHT22;10657;51.276;6.390;2023-08-08T05:54:22;13.80;99.90
20998;DHT22;10657;51.276;6.390;2023-08-08T05:56:49;13.90;99.90
20998;DHT22;10657;51.276;6.390;2023-08-08T05:59:15;13.90;99.90
20998;DHT22;10657;51.276;6.390;2023-08-08T06:01:42;14.00;99.90
20998;DHT22;10657;51.276;6.390;2023-08-08T06:04:11;13.90;99.90
20998;DHT22;10657;51.276;6.390;2023-08-08T06:06:37;13.90;99.90
20998;DHT22;10657;51.276;6.390;2023-08-08T06:09:04;14.00;99.90
20998;DHT22;10657;51.276;6.390;2023-08-08T06:11:31;13.90;99.90
20998;DHT22;10657;51.276;6.390;2023-08-08T06:13:58;14.00;99.90
20998;DHT22;10657;51.276;6.390;2023-08-08T06:16:25;14.00;99.90
20998;DHT22;10657;51.276;6.390;2023-08-08T06:18:52;14.00;99.90
20998;DHT22;10657;51.276;6.390;2023-08-08T06:21:19;14.00;99.90
20998;DHT22;10657;51.276;6.390;2023-08-08T06:23:46;14.10;99.90
20998;DHT22;10657;51.276;6.390;2023-08-08T06:26:14;14.10;99.90
20998;DHT22;10657;51.276;6.390;2023-08-08T06:28:41;14.10;99.90
20998;DHT22;10657;51.276;6.390;2023-08-08T06:31:07;14.20;99.90
20998;DHT22;10657;51.276;6.390;2023-08-08T06:33:34;14.30;99.90
20998;DHT22;10657;51.276;6.390;2023-08-08T06:36:02;14.30;99.90
20998;DHT22;10657;51.276;6.390;2023-08-08T06:38:29;14.40;99.90
20998;DHT22;10657;51.276;6.390;2023-08-08T06:41:01;14.50;99.90
20998;DHT22;10657;51.276;6.390;2023-08-08T06:43:29;14.50;99.90
20998;DHT22;10657;51.276;6.390;2023-08-08T06:45:56;14.60;99.90
20998;DHT22;10657;51.276;6.390;2023-08-08T06:48:23;14.60;99.90
20998;DHT22;10657;51.276;6.390;2023-08-08T06:50:50;14.60;99.90
20998;DHT22;10657;51.276;6.390;2023-08-08T06:53:17;14.60;99.90
20998;DHT22;10657;51.276;6.390;2023-08-08T06:55:43;14.70;99.90
20998;DHT22;10657;51.276;6.390;2023-08-08T06:58:10;14.70;99.90
20998;DHT22;10657;51.276;6.390;2023-08-08T07:00:37;14.80;99.90
20998;DHT22;10657;51.276;6.390;2023-08-08T07:03:04;14.80;99.90
20998;DHT22;10657;51.276;6.390;2023-08-08T07:05:30;14.90;99.90
20998;DHT22;10657;51.276;6.390;2023-08-08T07:07:57;14.90;99.90
20998;DHT22;10657;51.276;6.390;2023-08-08T07:10:24;14.90;99.90
20998;DHT22;10657;51.276;6.390;2023-08-08T07:12:50;14.80;99.90
20998;DHT22;10657;51.276;6.390;2023-08-08T07:15:19;15.00;99.90
20998;DHT22;10657;51.276;6.390;2023-08-08T07:17:45;15.00;99.90
20998;DHT22;10657;51.276;6.390;2023-08-08T07:20:12;15.10;99.90
20998;DHT22;10657;51.276;6.390;2023-08-08T07:22:40;15.20;99.90
20998;DHT22;10657;51.276;6.390;2023-08-08T07:25:07;15.20;99.90
20998;DHT22;10657;51.276;6.390;2023-08-08T07:27:34;15.20;99.90
20998;DHT22;10657;51.276;6.390;2023-08-08T07:30:01;15.40;99.90
20998;DHT22;10657;51.276;6.390;2023-08-08T07:32:29;15.30;99.90
20998;DHT22;10657;51.276;6.390;2023-08-08T07:34:58;15.40;99.90
20998;DHT22;10657;51.276;6.390;2023-08-08T07:37:27;15.30;99.90
20998;DHT22;10657;51.276;6.390;2023-08-08T07:39:54;15.30;99.90
20998;DHT22;10657;51.276;6.390;2023-08-08T07:42:21;15.30;99.90
20998;DHT22;10657;51.276;6.390;2023-08-08T07:44:48;15.40;99.90
20998;DHT22;10657;51.276;6.390;2023-08-08T07:47:14;15.40;99.90
20998;DHT22;10657;51.276;6.390;2023-08-08T07:49:41;15.40;99.90
20998;DHT22;10657;51.276;6.390;2023-08-08T07:52:08;15.40;99.90
20998;DHT22;10657;51.276;6.390;2023-08-08T07:54:34;15.60;99.90
20998;DHT22;10657;51.276;6.390;2023-08-08T07:57:01;15.70;99.90
20998;DHT22;10657;51.276;6.390;2023-08-08T07:59:28;15.70;99.90
20998;DHT22;10657;51.276;6.390;2023-08-08T08:01:54;15.70;99.90
20998;DHT22;10657;51.276;6.390;2023-08-08T08:04:21;15.70;99.90
20998;DHT22;10657;51.276;6.390;2023-08-08T08:06:48;15.80;99.90
20998;DHT22;10657;51.276;6.390;2023-08-08T08:09:14;15.70;99.90
20998;DHT22;10657;51.276;6.390;2023-08-08T08:11:41;15.70;99.90
20998;DHT22;10657;51.276;6.390;2023-08-08T08:14:08;15.70;99.90
20998;DHT22;10657;51.276;6.390;2023-08-08T08:16:34;15.80;99.90
20998;DHT22;10657;51.276;6.390;2023-08-08T08:19:01;15.80;99.90
20998;DHT22;10657;51.276;6.390;2023-08-08T08:21:28;15.90;99.90
20998;DHT22;10657;51.276;6.390;2023-08-08T08:23:55;16.10;99.90
20998;DHT22;10657;51.276;6.390;2023-08-08T08:26:21;16.10;99.90
20998;DHT22;10657;51.276;6.390;2023-08-08T08:28:48;16.10;99.90
20998;DHT22;10657;51.276;6.390;2023-08-08T08:31:15;16.20;99.90
20998;DHT22;10657;51.276;6.390;2023-08-08T08:33:41;16.20;99.90
20998;DHT22;10657;51.276;6.390;2023-08-08T08:36:08;16.10;99.90
20998;DHT22;10657;51.276;6.390;2023-08-08T08:38:37;16.10;99.90
20998;DHT22;10657;51.276;6.390;2023-08-08T08:41:04;16.10;99.90
20998;DHT22;10657;51.276;6.390;2023-08-08T08:43:31;16.00;99.90
20998;DHT22;10657;51.276;6.390;2023-08-08T08:46:00;16.00;99.90
20998;DHT22;10657;51.276;6.390;2023-08-08T08:48:28;16.00;99.90
20998;DHT22;10657;51.276;6.390;2023-08-08T08:50:55;16.00;99.90
20998;DHT22;10657;51.276;6.390;2023-08-08T08:53:22;16.10;99.90
20998;DHT22;10657;51.276;6.390;2023-08-08T08:55:50;16.20;99.90
20998;DHT22;10657;51.276;6.390;2023-08-08T08:58:18;16.20;99.90
20998;DHT22;10657;51.276;6.390;2023-08-08T09:00:46;16.40;99.90
20998;DHT22;10657;51.276;6.390;2023-08-08T09:03:14;16.40;99.90
20998;DHT22;10657;51.276;6.390;2023-08-08T09:05:41;16.40;99.90
20998;DHT22;10657;51.276;6.390;2023-08-08T09:08:08;16.40;99.90
20998;DHT22;10657;51.276;6.390;2023-08-08T09:10:35;16.50;99.90
20998;DHT22;10657;51.276;6.390;2023-08-08T09:13:02;16.60;99.90
20998;DHT22;10657;51.276;6.390;2023-08-08T09:15:33;16.70;99.90
20998;DHT22;10657;51.276;6.390;2023-08-08T09:18:00;16.80;99.90
20998;DHT22;10657;51.276;6.390;2023-08-08T09:20:27;16.80;99.90
20998;DHT22;10657;51.276;6.390;2023-08-08T09:22:55;16.90;99.90
20998;DHT22;10657;51.276;6.390;2023-08-08T09:25:22;16.90;99.90
20998;DHT22;10657;51.276;6.390;2023-08-08T09:27:53;17.10;99.90
20998;DHT22;10657;51.276;6.390;2023-08-08T09:30:20;17.10;99.90
20998;DHT22;10657;51.276;6.390;2023-08-08T09:32:47;17.10;99.90
20998;DHT22;10657;51.276;6.390;2023-08-08T09:35:14;17.00;99.90
20998;DHT22;10657;51.276;6.390;2023-08-08T09:37:41;17.00;99.90
20998;DHT22;10657;51.276;6.390;2023-08-08T09:40:08;17.00;99.90
20998;DHT22;10657;51.276;6.390;2023-08-08T09:42:37;17.00;99.90
20998;DHT22;10657;51.276;6.390;2023-08-08T09:45:06;17.10;99.90
20998;DHT22;10657;51.276;6.390;2023-08-08T09:47:34;17.00;99.90
20998;DHT22;10657;51.276;6.390;2023-08-08T09:50:02;17.00;99.90
20998;DHT22;10657;51.276;6.390;2023-08-08T09:52:33;17.00;99.90
20998;DHT22;10657;51.276;6.390;2023-08-08T09:55:00;17.00;99.90
20998;DHT22;10657;51.276;6.390;2023-08-08T09:57:28;16.90;99.90
20998;DHT22;10657;51.276;6.390;2023-08-08T09:59:55;16.90;99.90
20998;DHT22;10657;51.276;6.390;2023-08-08T10:02:22;16.90;99.90
20998;DHT22;10657;51.276;6.390;2023-08-08T10:04:49;16.90;99.90
20998;DHT22;10657;51.276;6.390;2023-08-08T10:07:16;16.90;99.90
20998;DHT22;10657;51.276;6.390;2023-08-08T10:09:43;16.80;99.90
20998;DHT22;10657;51.276;6.390;2023-08-08T10:12:11;16.80;99.90
20998;DHT22;10657;51.276;6.390;2023-08-08T10:14:42;16.80;99.90
20998;DHT22;10657;51.276;6.390;2023-08-08T10:17:13;16.70;99.90
20998;DHT22;10657;51.276;6.390;2023-08-08T10:19:49;16.60;99.90
20998;DHT22;10657;51.276;6.390;2023-08-08T10:22:21;16.60;99.90
20998;DHT22;10657;51.276;6.390;2023-08-08T10:24:52;16.60;99.90
20998;DHT22;10657;51.276;6.390;2023-08-08T10:27:32;16.60;99.90
20998;DHT22;10657;51.276;6.390;2023-08-08T10:30:09;16.50;99.90
20998;DHT22;10657;51.276;6.390;2023-08-08T10:32:41;16.60;99.90
20998;DHT22;10657;51.276;6.390;2023-08-08T10:35:09;16.60;99.90
20998;DHT22;10657;51.276;6.390;2023-08-08T10:37:36;16.60;99.90
20998;DHT22;10657;51.276;6.390;2023-08-08T10:40:05;16.60;99.90
20998;DHT22;10657;51.276;6.390;2023-08-08T10:42:40;16.50;99.90
20998;DHT22;10657;51.276;6.390;2023-08-08T10:45:11;16.40;99.90
20998;DHT22;10657;51.276;6.390;2023-08-08T10:47:40;16.60;99.90
20998;DHT22;10657;51.276;6.390;2023-08-08T10:50:08;16.60;99.90
20998;DHT22;10657;51.276;6.390;2023-08-08T10:52:54;16.80;99.90
20998;DHT22;10657;51.276;6.390;2023-08-08T10:55:32;17.00;99.90
20998;DHT22;10657;51.276;6.390;2023-08-08T10:58:12;17.10;99.90
20998;DHT22;10657;51.276;6.390;2023-08-08T11:00:42;17.30;99.90
20998;DHT22;10657;51.276;6.390;2023-08-08T11:03:09;17.40;99.90
20998;DHT22;10657;51.276;6.390;2023-08-08T11:05:37;17.40;99.90
20998;DHT22;10657;51.276;6.390;2023-08-08T11:08:05;17.60;99.90
20998;DHT22;10657;51.276;6.390;2023-08-08T11:10:36;17.50;99.90
20998;DHT22;10657;51.276;6.390;2023-08-08T11:13:05;17.70;99.90
20998;DHT22;10657;51.276;6.390;2023-08-08T11:15:34;17.60;99.90
20998;DHT22;10657;51.276;6.390;2023-08-08T11:18:01;17.70;99.90
20998;DHT22;10657;51.276;6.390;2023-08-08T11:20:34;17.70;99.90
20998;DHT22;10657;51.276;6.390;2023-08-08T11:23:01;17.50;99.90
20998;DHT22;10657;51.276;6.390;2023-08-08T11:25:30;17.40;99.90
20998;DHT22;10657;51.276;6.390;2023-08-08T11:27:58;17.30;99.90
20998;DHT22;10657;51.276;6.390;2023-08-08T11:30:29;17.30;99.90
20998;DHT22;10657;51.276;6.390;2023-08-08T11:32:55;17.30;99.90
20998;DHT22;10657;51.276;6.390;2023-08-08T11:35:25;17.30;99.90
20998;DHT22;10657;51.276;6.390;2023-08-08T11:37:54;17.20;99.90
20998;DHT22;10657;51.276;6.390;2023-08-08T11:40:23;17.10;99.90
20998;DHT22;10657;51.276;6.390;2023-08-08T11:42:52;17.00;99.90
20998;DHT22;10657;51.276;6.390;2023-08-08T11:45:19;17.00;99.90
20998;DHT22;10657;51.276;6.390;2023-08-08T11:47:53;17.00;99.90
20998;DHT22;10657;51.276;6.390;2023-08-08T11:50:22;17.00;99.90
20998;DHT22;10657;51.276;6.390;2023-08-08T11:52:51;16.90;99.90
20998;DHT22;10657;51.276;6.390;2023-08-08T11:55:27;17.00;99.90
20998;DHT22;10657;51.276;6.390;2023-08-08T11:57:55;17.00;99.90
20998;DHT22;10657;51.276;6.390;2023-08-08T12:00:27;17.10;99.90
20998;DHT22;10657;51.276;6.390;2023-08-08T12:02:55;17.30;99.90
20998;DHT22;10657;51.276;6.390;2023-08-08T12:05:22;17.30;99.90
20998;DHT22;10657;51.276;6.390;2023-08-08T12:07:49;17.50;99.90
20998;DHT22;10657;51.276;6.390;2023-08-08T12:10:20;17.70;99.90
20998;DHT22;10657;51.276;6.390;2023-08-08T12:12:53;18.10;99.90
20998;DHT22;10657;51.276;6.390;2023-08-08T12:15:20;18.40;99.90
20998;DHT22;10657;51.276;6.390;2023-08-08T12:17:47;18.50;99.90
20998;DHT22;10657;51.276;6.390;2023-08-08T12:20:14;18.40;99.90
20998;DHT22;10657;51.276;6.390;2023-08-08T12:22:41;18.40;99.90
20998;DHT22;10657;51.276;6.390;2023-08-08T12:25:08;18.60;99.90
20998;DHT22;10657;51.276;6.390;2023-08-08T12:27:35;18.60;99.90
20998;DHT22;10657;51.276;6.390;2023-08-08T12:30:02;18.30;99.90
20998;DHT22;10657;51.276;6.390;2023-08-08T12:32:29;18.20;99.90
20998;DHT22;10657;51.276;6.390;2023-08-08T12:34:58;18.10;99.90
20998;DHT22;10657;51.276;6.390;2023-08-08T12:37:25;18.00;99.90
20998;DHT22;10657;51.276;6.390;2023-08-08T12:39:52;17.90;99.90
20998;DHT22;10657;51.276;6.390;2023-08-08T12:42:18;17.90;99.90
20998;DHT22;10657;51.276;6.390;2023-08-08T12:44:45;17.90;99.90
20998;DHT22;10657;51.276;6.390;2023-08-08T12:47:14;17.90;99.90
20998;DHT22;10657;51.276;6.390;2023-08-08T12:49:41;17.80;99.90
20998;DHT22;10657;51.276;6.390;2023-08-08T12:52:08;17.90;99.90
20998;DHT22;10657;51.276;6.390;2023-08-08T12:54:35;17.90;99.90
20998;DHT22;10657;51.276;6.390;2023-08-08T12:57:03;18.40;99.90
20998;DHT22;10657;51.276;6.390;2023-08-08T12:59:29;18.50;99.90
20998;DHT22;10657;51.276;6.390;2023-08-08T13:01:56;18.30;99.90
20998;DHT22;10657;51.276;6.390;2023-08-08T13:04:23;18.70;99.90
20998;DHT22;10657;51.276;6.390;2023-08-08T13:06:50;18.60;99.90
20998;DHT22;10657;51.276;6.390;2023-08-08T13:09:17;18.50;99.90
20998;DHT22;10657;51.276;6.390;2023-08-08T13:11:43;18.40;99.90
20998;DHT22;10657;51.276;6.390;2023-08-08T13:14:10;18.40;99.90
20998;DHT22;10657;51.276;6.390;2023-08-08T13:16:37;18.40;99.90
20998;DHT22;10657;51.276;6.390;2023-08-08T13:19:03;18.50;99.90
20998;DHT22;10657;51.276;6.390;2023-08-08T13:21:31;18.50;99.90
20998;DHT22;10657;51.276;6.390;2023-08-08T13:23:58;18.40;99.90
20998;DHT22;10657;51.276;6.390;2023-08-08T13:26:25;18.60;99.90
20998;DHT22;10657;51.276;6.390;2023-08-08T13:28:51;18.80;99.90
20998;DHT22;10657;51.276;6.390;2023-08-08T13:31:18;19.10;99.90
20998;DHT22;10657;51.276;6.390;2023-08-08T13:33:45;19.50;99.90
20998;DHT22;10657;51.276;6.390;2023-08-08T13:36:12;19.40;99.90
20998;DHT22;10657;51.276;6.390;2023-08-08T13:38:38;19.50;99.90
20998;DHT22;10657;51.276;6.390;2023-08-08T13:41:05;19.70;99.90
20998;DHT22;10657;51.276;6.390;2023-08-08T13:43:32;19.50;99.90
20998;DHT22;10657;51.276;6.390;2023-08-08T13:45:58;19.50;99.90
20998;DHT22;10657;51.276;6.390;2023-08-08T13:48:26;19.50;99.90
20998;DHT22;10657;51.276;6.390;2023-08-08T13:50:53;19.80;99.90
20998;DHT22;10657;51.276;6.390;2023-08-08T13:53:20;20.00;99.90
20998;DHT22;10657;51.276;6.390;2023-08-08T13:55:46;19.80;99.90
20998;DHT22;10657;51.276;6.390;2023-08-08T13:58:13;19.50;99.90
20998;DHT22;10657;51.276;6.390;2023-08-08T14:00:40;19.80;99.90
20998;DHT22;10657;51.276;6.390;2023-08-08T14:03:07;20.00;99.90
20998;DHT22;10657;51.276;6.390;2023-08-08T14:05:34;20.50;99.90
20998;DHT22;10657;51.276;6.390;2023-08-08T14:08:01;20.30;99.90
20998;DHT22;10657;51.276;6.390;2023-08-08T14:10:27;20.60;99.90
20998;DHT22;10657;51.276;6.390;2023-08-08T14:12:54;20.80;99.90
20998;DHT22;10657;51.276;6.390;2023-08-08T14:15:21;20.90;99.90
20998;DHT22;10657;51.276;6.390;2023-08-08T14:17:48;20.80;99.90
20998;DHT22;10657;51.276;6.390;2023-08-08T14:20:15;20.40;99.90
20998;DHT22;10657;51.276;6.390;2023-08-08T14:22:45;20.00;99.90
20998;DHT22;10657;51.276;6.390;2023-08-08T14:25:15;19.70;99.90
20998;DHT22;10657;51.276;6.390;2023-08-08T14:27:42;19.70;99.90
20998;DHT22;10657;51.276;6.390;2023-08-08T14:30:09;19.80;99.90
20998;DHT22;10657;51.276;6.390;2023-08-08T14:32:36;19.60;99.90
20998;DHT22;10657;51.276;6.390;2023-08-08T14:35:04;19.60;99.90
20998;DHT22;10657;51.276;6.390;2023-08-08T14:37:32;19.90;99.90
20998;DHT22;10657;51.276;6.390;2023-08-08T14:39:58;20.40;99.90
20998;DHT22;10657;51.276;6.390;2023-08-08T14:42:25;20.70;99.90
20998;DHT22;10657;51.276;6.390;2023-08-08T14:44:52;21.00;99.90
20998;DHT22;10657;51.276;6.390;2023-08-08T14:47:19;20.40;99.90
20998;DHT22;10657;51.276;6.390;2023-08-08T14:49:45;20.30;99.90
20998;DHT22;10657;51.276;6.390;2023-08-08T14:52:13;20.10;99.90
20998;DHT22;10657;51.276;6.390;2023-08-08T14:54:40;19.90;99.90
20998;DHT22;10657;51.276;6.390;2023-08-08T14:57:08;19.90;99.90
20998;DHT22;10657;51.276;6.390;2023-08-08T14:59:34;19.60;99.90
20998;DHT22;10657;51.276;6.390;2023-08-08T15:02:01;19.70;99.90
20998;DHT22;10657;51.276;6.390;2023-08-08T15:04:28;20.00;99.90
20998;DHT22;10657;51.276;6.390;2023-08-08T15:06:54;20.80;99.90
20998;DHT22;10657;51.276;6.390;2023-08-08T15:09:21;21.10;99.90
20998;DHT22;10657;51.276;6.390;2023-08-08T15:11:48;21.40;99.90
20998;DHT22;10657;51.276;6.390;2023-08-08T15:14:14;21.50;99.90
20998;DHT22;10657;51.276;6.390;2023-08-08T15:16:42;21.50;99.90
20998;DHT22;10657;51.276;6.390;2023-08-08T15:19:14;20.90;99.90
20998;DHT22;10657;51.276;6.390;2023-08-08T15:21:41;20.40;99.90
20998;DHT22;10657;51.276;6.390;2023-08-08T15:24:08;20.10;99.90
20998;DHT22;10657;51.276;6.390;2023-08-08T15:26:34;19.90;99.90
20998;DHT22;10657;51.276;6.390;2023-08-08T15:29:01;20.20;99.90
20998;DHT22;10657;51.276;6.390;2023-08-08T15:31:28;20.20;99.90
20998;DHT22;10657;51.276;6.390;2023-08-08T15:33:55;20.40;99.90